Time;durP1;ratioP1;P1;durP2;ratioP2;P2;SDS_P1;SDS_P2;PMS_P1;PMS_P2;Temp;Humidity;BMP_temperature;BMP_pressure;BME280_temperature;BME280_humidity;BME280_pressure;Samples;Min_cycle;Max_cycle;Signal;HPM_P1;HPM_P2
2023/03/06 00:05:55;;;;;;;15.20;8.80;;;;;;;12.54;49.92;98185.98;267680;1273;25287;-74
2023/03/06 00:11:59;;;;;;;;;;;;;;;12.51;50.06;98192.28;267370;1273;24198;-73
2023/03/06 00:18:03;;;;;;;17.60;9.20;;;;;;;12.80;48.99;98202.67;267370;1273;22643;-74
2023/03/06 00:24:06;;;;;;;16.20;8.90;;;;;;;12.62;49.36;98194.05;267554;1274;22668;-73
2023/03/06 00:30:13;;;;;;;15.00;9.10;;;;;;;12.59;49.57;98192.69;267501;1273;22935;-73
2023/03/06 00:36:17;;;;;;;17.70;9.10;;;;;;;12.56;49.56;98190.04;267456;1273;25624;-74
2023/03/06 00:42:20;;;;;;;18.70;9.70;;;;;;;12.57;49.49;98191.93;267456;1273;22789;-74
2023/03/06 00:48:23;;;;;;;15.30;9.10;;;;;;;12.40;49.81;98190.41;267439;1273;23363;-73
2023/03/06 00:54:27;;;;;;;15.10;9.00;;;;;;;12.49;49.47;98183.74;267456;1274;22631;-73
2023/03/06 01:00:29;;;;;;;16.90;8.70;;;;;;;12.65;49.05;98182.14;267658;1272;22705;-73
2023/03/06 01:06:33;;;;;;;14.20;8.30;;;;;;;12.64;48.99;98172.38;267378;1273;23233;-73
2023/03/06 01:12:41;;;;;;;13.80;8.40;;;;;;;12.79;48.56;98181.14;267601;1270;22530;-73
2023/03/06 01:18:45;;;;;;;16.10;9.30;;;;;;;12.70;48.71;98182.48;267721;1273;22517;-72
2023/03/06 01:24:51;;;;;;;17.20;9.40;;;;;;;12.78;48.25;98179.69;267340;1273;25454;-72
2023/03/06 01:30:56;;;;;;;13.70;8.60;;;;;;;12.76;48.12;98177.79;267521;1251;25526;-73
2023/03/06 01:36:59;;;;;;;14.80;9.00;;;;;;;12.63;48.33;98171.63;267414;1269;24199;-73
2023/03/06 01:43:09;;;;;;;13.40;8.30;;;;;;;12.54;48.58;98170.45;267688;1273;22631;-72
2023/03/06 01:49:32;;;;;;;13.60;8.60;;;;;;;12.53;48.51;98160.38;267802;1273;25320;-72
2023/03/06 01:55:35;;;;;;;18.90;10.20;;;;;;;12.44;48.75;98159.48;267606;1265;22556;-72
2023/03/06 02:01:39;;;;;;;18.10;10.00;;;;;;;12.47;48.74;98153.56;267105;1269;23360;-73
2023/03/06 02:07:43;;;;;;;17.80;9.60;;;;;;;12.67;48.34;98157.92;267115;1272;25600;-72
2023/03/06 02:13:49;;;;;;;14.80;8.90;;;;;;;12.58;48.52;98160.44;266948;1273;24546;-72
2023/03/06 02:20:00;;;;;;;13.90;8.50;;;;;;;12.80;48.06;98162.59;266941;1274;23401;-73
2023/03/06 02:26:04;;;;;;;17.80;10.60;;;;;;;12.39;48.59;98157.59;267013;1273;22521;-72
2023/03/06 02:32:07;;;;;;;20.30;10.80;;;;;;;12.52;48.56;98154.60;267526;1272;22556;-72
2023/03/06 02:38:14;;;;;;;21.50;10.90;;;;;;;12.31;49.14;98147.52;267140;1269;22526;-71
2023/03/06 02:44:17;;;;;;;18.70;10.10;;;;;;;12.21;49.11;98148.73;267131;1273;22549;-72
2023/03/06 02:50:20;;;;;;;17.40;10.00;;;;;;;11.84;49.43;98142.83;267256;1273;22524;-72
2023/03/06 02:56:23;;;;;;;18.90;11.10;;;;;;;11.56;49.67;98145.85;267473;1273;22544;-73
2023/03/06 03:02:26;;;;;;;18.10;10.00;;;;;;;11.55;49.65;98145.67;266961;1273;25296;-73
2023/03/06 03:08:29;;;;;;;18.20;10.70;;;;;;;11.52;49.68;98135.59;267031;1273;22589;-72
2023/03/06 03:14:34;;;;;;;19.60;11.10;;;;;;;11.40;50.01;98127.38;267165;1273;22527;-74
2023/03/06 03:20:41;;;;;;;20.70;11.40;;;;;;;11.51;49.96;98137.09;267694;1273;22916;-74
2023/03/06 03:26:44;;;;;;;19.30;10.80;;;;;;;11.76;49.53;98134.22;267654;1273;22526;-73
2023/03/06 03:32:49;;;;;;;18.00;10.40;;;;;;;11.74;49.58;98129.30;267621;1267;22743;-73
2023/03/06 03:38:53;;;;;;;16.40;9.80;;;;;;;11.77;49.69;98125.92;267601;1273;25526;-73
2023/03/06 03:44:56;;;;;;;19.00;10.70;;;;;;;12.11;49.12;98117.44;267373;1273;24394;-73
2023/03/06 03:51:09;;;;;;;21.50;12.00;;;;;;;12.25;48.92;98115.27;267251;1273;22949;-72
2023/03/06 03:57:14;;;;;;;22.10;12.60;;;;;;;12.20;49.18;98114.23;267240;1273;22643;-72
2023/03/06 04:03:21;;;;;;;23.10;12.60;;;;;;;12.29;49.19;98109.41;266971;1273;22742;-72
2023/03/06 04:09:24;;;;;;;21.90;12.80;;;;;;;12.22;49.49;98102.05;267078;1273;25316;-73
2023/03/06 04:15:27;;;;;;;23.40;13.00;;;;;;;12.35;49.25;98092.70;267059;1273;25225;-72
2023/03/06 04:21:31;;;;;;;25.40;13.60;;;;;;;12.19;49.49;98098.54;267120;1273;22711;-72
2023/03/06 04:27:34;;;;;;;25.80;13.30;;;;;;;12.27;49.49;98092.11;267127;1272;22533;-73
2023/03/06 04:33:38;;;;;;;27.30;13.80;;;;;;;12.26;49.61;98091.14;266879;1268;25481;-72
2023/03/06 04:39:42;;;;;;;26.10;13.90;;;;;;;12.40;49.51;98094.02;267039;1271;25406;-73
2023/03/06 04:45:45;;;;;;;23.80;12.20;;;;;;;12.51;49.31;98090.70;266967;1251;25333;-74
2023/03/06 04:51:48;;;;;;;23.60;13.20;;;;;;;12.78;48.88;98085.88;267073;1272;24377;-73
2023/03/06 04:57:50;;;;;;;22.30;11.90;;;;;;;12.63;49.02;98084.73;266692;1273;22680;-74
2023/03/06 05:03:53;;;;;;;21.50;11.90;;;;;;;12.56;49.14;98087.64;266743;1273;24577;-73
2023/03/06 05:09:56;;;;;;;24.50;12.40;;;;;;;12.60;49.00;98084.30;267018;1274;23287;-72
2023/03/06 05:16:04;;;;;;;21.40;12.60;;;;;;;12.54;49.19;98079.91;266942;1273;22810;-74
2023/03/06 05:22:07;;;;;;;21.70;12.00;;;;;;;12.49;49.40;98081.59;266918;1274;22579;-74
2023/03/06 05:28:10;;;;;;;24.30;13.40;;;;;;;12.56;49.30;98088.55;266928;1273;22520;-73
2023/03/06 05:34:14;;;;;;;23.50;13.30;;;;;;;12.50;49.52;98088.59;266990;1273;25505;-73
2023/03/06 05:40:17;;;;;;;25.40;13.70;;;;;;;12.73;48.99;98094.29;267199;1273;22628;-72
2023/03/06 05:46:20;;;;;;;24.60;13.80;;;;;;;12.76;49.03;98093.42;267206;1270;22524;-73
2023/03/06 05:52:24;;;;;;;20.60;12.00;;;;;;;12.85;48.86;98086.42;267424;1266;22672;-74
2023/03/06 05:58:30;;;;;;;22.30;11.40;;;;;;;12.78;49.01;98084.84;267312;1273;24486;-75
2023/03/06 06:04:33;;;;;;;23.20;11.90;;;;;;;12.73;49.03;98081.55;267241;1267;22936;-72
2023/03/06 06:10:37;;;;;;;20.70;11.30;;;;;;;12.75;48.86;98081.94;267291;1270;22576;-73
2023/03/06 06:16:40;;;;;;;23.00;12.00;;;;;;;12.79;48.84;98078.59;267471;1273;23114;-74
2023/03/06 06:22:43;;;;;;;22.00;12.40;;;;;;;13.12;48.43;98080.73;267082;1266;22586;-74
2023/03/06 06:28:46;;;;;;;25.40;12.70;;;;;;;13.16;48.31;98092.02;267258;1269;25650;-74
2023/03/06 06:34:50;;;;;;;25.30;13.10;;;;;;;13.14;48.37;98088.20;267274;1266;22553;-74
2023/03/06 06:40:52;;;;;;;22.90;12.50;;;;;;;13.00;48.35;98088.41;267577;1273;22596;-73
2023/03/06 06:47:16;;;;;;;21.40;11.80;;;;;;;13.00;48.20;98083.77;267354;1270;22521;-73
2023/03/06 06:53:27;;;;;;;21.70;12.60;;;;;;;13.45;47.29;98072.77;267846;1270;22997;-74
2023/03/06 06:59:30;;;;;;;20.60;11.90;;;;;;;13.42;47.50;98061.77;268005;1266;23868;-74
2023/03/06 07:05:33;;;;;;;20.10;11.30;;;;;;;13.81;46.66;98059.42;267694;1265;23260;-74
2023/03/06 07:11:38;;;;;;;17.60;10.80;;;;;;;14.61;45.07;98059.15;267379;1266;24196;-74
2023/03/06 07:17:41;;;;;;;17.50;10.60;;;;;;;14.70;44.74;98054.94;267414;1266;25297;-78
2023/03/06 07:23:44;;;;;;;15.20;9.20;;;;;;;14.83;44.33;98055.44;267041;1266;25356;-76
2023/03/06 07:29:47;;;;;;;13.60;8.90;;;;;;;15.19;43.69;98062.77;267557;1266;22561;-76
2023/03/06 07:35:50;;;;;;;17.10;10.10;;;;;;;15.33;43.58;98068.08;267008;1266;22535;-78
2023/03/06 07:41:53;;;;;;;13.90;9.70;;;;;;;15.32;43.26;98075.46;267152;1266;22524;-78
2023/03/06 07:47:56;;;;;;;16.50;10.90;;;;;;;15.84;42.72;98075.23;267040;1266;113437;-79
2023/03/06 07:53:59;;;;;;;17.00;9.80;;;;;;;16.24;42.24;98077.90;266906;1270;22541;-78
2023/03/06 08:00:05;;;;;;;15.70;9.70;;;;;;;16.15;42.22;98083.17;267176;1266;22554;-77
2023/03/06 08:06:16;;;;;;;14.50;9.80;;;;;;;16.25;41.97;98076.74;266986;1266;23233;-77
2023/03/06 08:12:19;;;;;;;16.90;9.90;;;;;;;16.01;41.85;98077.38;267060;1267;22560;-77
2023/03/06 08:18:22;;;;;;;15.50;9.60;;;;;;;16.28;40.86;98069.34;266904;1273;25253;-75
2023/03/06 08:24:24;;;;;;;15.60;10.10;;;;;;;16.86;40.15;98074.39;266953;1269;22564;-79
2023/03/06 08:30:28;;;;;;;17.30;11.00;;;;;;;16.90;40.12;98072.86;266935;1270;22530;-77
2023/03/06 08:36:31;;;;;;;21.30;11.70;;;;;;;16.94;40.00;98073.34;267553;1266;24186;-76
2023/03/06 08:42:34;;;;;;;18.30;11.70;;;;;;;17.17;39.62;98070.23;267674;1273;22684;-77
2023/03/06 08:48:37;;;;;;;17.70;10.70;;;;;;;17.36;39.24;98073.83;267568;1273;22519;-77
2023/03/06 08:54:40;;;;;;;19.50;12.00;;;;;;;17.35;39.32;98077.33;267675;1265;22528;-78
2023/03/06 09:00:44;;;;;;;18.90;11.60;;;;;;;17.48;39.15;98084.02;267375;1270;24291;-77
2023/03/06 09:06:47;;;;;;;17.90;11.40;;;;;;;17.51;39.05;98081.48;267690;1267;25196;-77
2023/03/06 09:12:51;;;;;;;15.70;9.40;;;;;;;17.26;39.15;98078.83;267752;1267;24321;-77
2023/03/06 09:18:57;;;;;;;11.30;7.20;;;;;;;16.46;39.16;98081.23;267549;1269;22516;-77
2023/03/06 09:25:03;;;;;;;9.70;6.90;;;;;;;15.95;39.30;98077.45;267767;1270;22478;-78
2023/03/06 09:31:11;;;;;;;9.10;5.60;;;;;;;16.32;38.78;98071.38;267654;1266;22524;-78
2023/03/06 09:37:15;;;;;;;7.30;5.00;;;;;;;16.21;38.59;98072.85;267823;1266;25417;-78
2023/03/06 09:43:25;;;;;;;6.60;3.90;;;;;;;16.67;37.86;98068.38;267373;1266;22585;-78
2023/03/06 09:49:47;;;;;;;7.70;4.20;;;;;;;16.58;37.59;98069.98;267605;1273;25343;-78
2023/03/06 09:56:14;;;;;;;8.30;3.90;;;;;;;16.69;37.17;98061.96;267152;1266;25402;-78
2023/03/06 10:02:39;;;;;;;4.90;3.20;;;;;;;16.50;37.05;98056.26;267183;1266;22631;-77
2023/03/06 10:08:43;;;;;;;4.60;3.20;;;;;;;16.20;36.42;98051.41;267390;1266;22582;-79
2023/03/06 10:14:52;;;;;;;3.70;2.90;;;;;;;16.30;36.62;98054.11;267629;1260;22531;-78
2023/03/06 10:21:01;;;;;;;5.60;2.70;;;;;;;15.99;36.29;98046.48;267305;1266;25345;-78
2023/03/06 10:27:41;;;;;;;5.20;2.60;;;;;;;15.76;36.28;98037.52;267214;1266;22574;-75
2023/03/06 10:33:57;;;;;;;3.50;1.90;;;;;;;16.03;36.17;98033.98;267297;1266;24179;-77
2023/03/06 10:40:11;;;;;;;2.70;1.90;;;;;;;15.99;35.55;98029.36;267371;1269;24704;-77
2023/03/06 10:46:28;;;;;;;3.30;2.10;;;;;;;15.67;35.60;98019.61;267067;1270;22712;-77
2023/03/06 10:52:34;;;;;;;3.80;2.10;;;;;;;15.83;35.44;98018.11;266967;1256;22719;-77
2023/03/06 10:58:37;;;;;;;4.70;2.70;;;;;;;15.66;35.40;98012.08;267623;1265;22668;-78
2023/03/06 11:04:45;;;;;;;5.20;3.10;;;;;;;16.01;35.67;98002.86;267235;1266;22533;-77
2023/03/06 11:11:21;;;;;;;6.10;3.80;;;;;;;16.47;36.06;97999.21;267305;1266;22523;-77
2023/03/06 11:18:03;;;;;;;6.80;4.10;;;;;;;16.88;35.55;97990.91;267203;1266;23595;-77
2023/03/06 11:24:14;;;;;;;5.40;3.20;;;;;;;16.63;35.70;97980.77;267258;1266;22570;-78
2023/03/06 11:30:22;;;;;;;5.50;3.60;;;;;;;17.12;35.30;97972.90;267485;1266;22976;-77
2023/03/06 11:36:52;;;;;;;5.30;3.10;;;;;;;17.25;34.94;97964.80;267593;1266;23897;-78
2023/03/06 11:43:06;;;;;;;6.00;4.00;;;;;;;16.72;35.37;97960.08;267164;1266;22691;-80
2023/03/06 11:49:28;;;;;;;7.50;4.10;;;;;;;17.05;35.09;97948.64;267130;1266;22754;-78
2023/03/06 11:55:53;;;;;;;6.70;4.20;;;;;;;18.08;34.38;97938.32;266974;1273;22537;-82
2023/03/06 12:02:05;;;;;;;7.30;4.50;;;;;;;17.50;34.32;97932.11;267176;1267;22628;-80
2023/03/06 12:08:34;;;;;;;5.60;3.90;;;;;;;17.63;34.68;97917.77;267430;1270;22756;-81
2023/03/06 12:14:50;;;;;;;6.80;4.00;;;;;;;18.06;34.29;97908.39;265849;1281;25316;-81
2023/03/06 12:21:01;;;;;;;6.40;4.10;;;;;;;18.07;34.07;97903.21;265641;1275;25403;-83
2023/03/06 12:27:15;;;;;;;6.50;3.80;;;;;;;18.19;33.96;97900.27;265938;1280;22575;-81
2023/03/06 12:33:29;;;;;;;6.40;3.80;;;;;;;18.75;33.45;97891.22;265938;1280;23998;-82
2023/03/06 12:39:44;;;;;;;6.20;4.20;;;;;;;18.84;33.05;97892.21;266057;1278;22535;-82
2023/03/06 12:45:51;;;;;;;7.90;4.20;;;;;;;19.25;32.90;97886.28;265665;1280;23894;-82
2023/03/06 12:51:55;;;;;;;6.30;4.30;;;;;;;18.51;33.69;97886.48;266830;1266;25445;-81
2023/03/06 12:58:30;;;;;;;8.20;4.30;;;;;;;18.47;33.53;97883.95;267797;1266;23146;-80
2023/03/06 13:04:50;;;;;;;6.80;4.00;;;;;;;19.00;33.19;97871.55;267210;1269;22554;-79
2023/03/06 13:11:31;;;;;;;7.40;4.30;;;;;;;18.60;33.59;97877.67;267262;1267;24023;-80
2023/03/06 13:17:36;;;;;;;8.20;4.70;;;;;;;18.51;34.07;97881.42;267758;1266;22998;-78
2023/03/06 13:23:49;;;;;;;6.60;3.60;;;;;;;18.47;34.21;97879.37;268095;1266;25331;-79
2023/03/06 13:30:27;;;;;;;5.50;3.30;;;;;;;18.98;33.83;97857.12;267603;1266;25913;-79
2023/03/06 13:36:34;;;;;;;4.50;3.00;;;;;;;19.29;33.33;97845.56;267422;1266;25331;-78
2023/03/06 13:42:41;;;;;;;5.30;3.10;;;;;;;19.79;32.79;97834.89;267167;1266;25300;-79
2023/03/06 13:48:44;;;;;;;6.10;3.40;;;;;;;19.80;32.73;97832.69;267168;1269;25284;-79
2023/03/06 13:55:16;;;;;;;6.70;3.80;;;;;;;18.67;33.38;97845.39;267483;1266;22732;-79
2023/03/06 14:01:47;;;;;;;7.80;4.40;;;;;;;15.83;41.27;97879.60;267359;1269;26437;-80
2023/03/06 14:15:52;;;;;;;7.00;3.30;;;;;;;15.65;43.43;97880.80;264208;1290;22587;-79
2023/03/06 14:21:57;;;;;;;5.70;3.10;;;;;;;15.34;43.50;97880.40;264021;1290;22588;-79
2023/03/06 14:28:00;;;;;;;6.30;3.20;;;;;;;15.93;42.02;97876.99;264254;1283;22537;-80
2023/03/06 14:34:25;;;;;;;4.80;2.90;;;;;;;16.12;42.24;97873.30;263896;1286;24585;-80
2023/03/06 14:40:39;;;;;;;8.60;3.60;;;;;;;16.35;42.00;97876.17;264032;1286;22553;-81
2023/03/06 14:46:44;;;;;;;7.90;3.60;;;;;;;16.41;41.75;97869.77;263940;1286;25310;-81
2023/03/06 14:52:59;;;;;;;5.00;2.90;;;;;;;17.14;40.64;97866.22;266270;1275;22561;-80
2023/03/06 14:59:05;;;;;;;5.10;2.40;;;;;;;17.25;39.06;97859.02;267108;1275;22530;-81
2023/03/06 15:05:22;;;;;;;6.30;2.90;;;;;;;16.93;38.77;97858.52;266937;1272;22501;-81
2023/03/06 15:11:25;;;;;;;5.70;2.70;;;;;;;16.93;38.65;97858.46;266749;1275;24223;-81
2023/03/06 15:17:41;;;;;;;5.40;2.60;;;;;;;17.00;38.49;97845.52;266624;1269;23234;-80
2023/03/06 15:23:46;;;;;;;4.30;2.60;;;;;;;16.86;38.13;97840.95;266775;1275;22989;-80
2023/03/06 15:29:49;;;;;;;4.90;2.20;;;;;;;16.73;38.03;97841.52;266778;1268;22610;-81
2023/03/06 15:36:20;;;;;;;4.20;2.10;;;;;;;16.43;38.17;97842.69;266965;1269;22633;-81
2023/03/06 15:42:34;;;;;;;5.00;2.50;;;;;;;16.59;38.02;97842.27;267010;1267;25399;-80
2023/03/06 15:48:37;;;;;;;6.20;2.80;;;;;;;16.50;38.38;97841.69;267479;1271;22603;-80
2023/03/06 15:54:40;;;;;;;6.80;2.70;;;;;;;16.42;38.61;97837.26;267144;1274;22555;-80
2023/03/06 16:00:44;;;;;;;5.70;2.80;;;;;;;16.57;38.57;97838.02;267142;1272;24171;-80
2023/03/06 16:06:47;;;;;;;8.00;3.50;;;;;;;16.15;39.18;97836.81;267471;1272;22611;-79
2023/03/06 16:12:55;;;;;;;7.20;3.20;;;;;;;16.31;39.04;97838.21;268018;1269;25297;-80
2023/03/06 16:19:05;;;;;;;5.90;2.70;;;;;;;16.14;39.40;97837.41;268709;1268;25097;-79
2023/03/06 16:25:14;;;;;;;6.30;3.00;;;;;;;16.04;39.38;97838.77;267891;1269;24009;-80
2023/03/06 16:31:17;;;;;;;7.70;2.50;;;;;;;15.91;39.47;97838.14;267246;1274;22646;-77
2023/03/06 16:37:20;;;;;;;6.20;3.00;;;;;;;15.64;39.59;97842.25;267050;1272;25265;-80
2023/03/06 16:43:23;;;;;;;7.40;3.20;;;;;;;15.50;38.75;97844.39;267481;1270;22551;-77
2023/03/06 16:49:26;;;;;;;7.00;3.20;;;;;;;15.76;38.15;97845.05;267200;1267;22676;-77
2023/03/06 16:55:29;;;;;;;6.20;3.40;;;;;;;15.88;37.81;97849.48;267083;1269;22573;-77
2023/03/06 17:01:34;;;;;;;9.20;3.90;;;;;;;15.54;37.76;97855.49;267136;1274;24660;-77
2023/03/06 17:07:38;;;;;;;8.70;4.00;;;;;;;15.22;38.13;97864.00;267284;1271;22517;-77
2023/03/06 17:13:47;;;;;;;9.40;4.40;;;;;;;14.56;39.47;97873.09;267134;1272;22571;-81
2023/03/06 17:19:55;;;;;;;10.20;4.70;;;;;;;13.95;42.34;97877.39;269081;1272;25268;-82
2023/03/06 17:26:08;;;;;;;9.60;4.70;;;;;;;14.28;42.71;97872.71;267201;1272;24105;-77
2023/03/06 17:32:11;;;;;;;10.30;5.20;;;;;;;14.65;42.23;97870.68;267193;1269;22764;-84
2023/03/06 17:38:18;;;;;;;10.10;5.00;;;;;;;14.82;42.02;97869.73;267916;1274;22655;-83
2023/03/06 17:44:22;;;;;;;12.60;4.50;;;;;;;14.72;42.12;97866.68;268440;1273;23685;-82
2023/03/06 17:50:28;;;;;;;9.50;4.70;;;;;;;14.66;42.36;97871.05;268759;1267;22520;-83
2023/03/06 17:56:39;;;;;;;9.70;5.00;;;;;;;14.52;42.83;97867.31;268338;1274;23117;-86
2023/03/06 18:02:44;;;;;;;10.00;5.00;;;;;;;14.59;42.87;97870.11;268548;1271;23418;-82
2023/03/06 18:08:48;;;;;;;11.90;5.80;;;;;;;14.55;42.90;97870.03;268434;1269;22560;-83
2023/03/06 18:14:57;;;;;;;9.90;5.20;;;;;;;14.43;43.31;97872.54;268526;1267;24208;-82
2023/03/06 18:21:04;;;;;;;11.30;6.00;;;;;;;14.30;43.59;97872.21;268514;1261;24189;-83
2023/03/06 18:27:08;;;;;;;13.90;5.80;;;;;;;14.30;43.76;97874.86;268335;1270;24238;-82
2023/03/06 18:33:12;;;;;;;13.00;6.10;;;;;;;13.65;44.79;97870.38;268741;1272;22558;-83
2023/03/06 18:39:16;;;;;;;14.70;6.60;;;;;;;13.93;44.66;97871.16;268577;1273;22505;-81
2023/03/06 18:45:20;;;;;;;13.80;6.50;;;;;;;13.52;45.34;97871.38;268198;1270;24266;-81
2023/03/06 18:51:26;;;;;;;18.90;7.60;;;;;;;13.46;45.74;97873.02;268099;1274;22530;-80
2023/03/06 18:57:32;;;;;;;16.30;8.40;;;;;;;13.50;45.66;97869.80;267292;1274;24301;-82
2023/03/06 19:03:35;;;;;;;18.00;8.10;;;;;;;13.37;45.98;97867.23;267543;1267;25463;-78
2023/03/06 19:09:43;;;;;;;18.50;8.70;;;;;;;13.36;46.03;97870.74;266980;1274;22558;-78
2023/03/06 19:15:47;;;;;;;21.30;8.80;;;;;;;13.50;45.90;97869.02;266954;1274;22533;-76
2023/03/06 19:21:52;;;;;;;18.90;8.90;;;;;;;13.53;46.00;97864.84;267101;1270;24204;-78
2023/03/06 19:28:02;;;;;;;14.90;8.60;;;;;;;13.77;45.54;97867.88;267463;1270;22908;-80
2023/03/06 19:34:10;;;;;;;18.70;9.50;;;;;;;13.73;45.58;97866.75;267739;1273;22521;-79
2023/03/06 19:40:17;;;;;;;20.30;9.80;;;;;;;13.56;45.92;97865.63;268095;1272;22480;-79
2023/03/06 19:46:28;;;;;;;21.60;10.30;;;;;;;13.51;46.05;97862.33;267119;1274;255174;-74
2023/03/06 19:52:35;;;;;;;16.40;8.60;;;;;;;13.59;45.88;97859.46;267682;1272;25348;-77
2023/03/06 19:58:39;;;;;;;20.90;9.80;;;;;;;13.45;46.13;97858.57;267246;1274;24684;-75
2023/03/06 20:04:42;;;;;;;20.00;9.80;;;;;;;13.36;46.18;97857.23;267188;1272;23199;-74
2023/03/06 20:10:45;;;;;;;19.10;9.00;;;;;;;13.28;46.21;97857.92;267177;1271;25407;-75
2023/03/06 20:16:49;;;;;;;22.50;9.60;;;;;;;13.23;46.35;97863.02;267187;1274;22563;-73
2023/03/06 20:22:52;;;;;;;21.00;11.20;;;;;;;13.29;46.29;97869.27;266937;1274;26956;-75
2023/03/06 20:28:56;;;;;;;25.50;13.70;;;;;;;13.32;46.54;97873.52;266842;1267;22539;-76
2023/03/06 20:34:59;;;;;;;34.30;17.20;;;;;;;13.27;46.75;97873.42;266920;1274;24908;-76
2023/03/06 20:41:04;;;;;;;35.40;19.10;;;;;;;13.12;47.19;97874.09;267069;1275;25334;-80
2023/03/06 20:47:13;;;;;;;41.80;20.50;;;;;;;12.82;47.75;97868.08;267453;1273;25452;-87
2023/03/06 20:53:16;;;;;;;29.90;15.10;;;;;;;13.15;46.88;97864.63;267072;1274;22956;-82
2023/03/06 20:59:22;;;;;;;26.90;13.70;;;;;;;13.02;46.90;97863.98;267152;1273;22647;-77
2023/03/06 21:05:25;;;;;;;29.40;13.60;;;;;;;13.05;46.78;97860.35;267356;1269;24024;-79
2023/03/06 21:11:28;;;;;;;25.80;13.80;;;;;;;12.80;47.02;97858.50;266827;1274;26655;-79
2023/03/06 21:17:31;;;;;;;24.20;13.20;;;;;;;12.66;47.26;97852.13;266765;1274;25675;-79
2023/03/06 21:23:34;;;;;;;28.10;14.20;;;;;;;12.37;47.78;97848.63;266464;1274;23155;-79
2023/03/06 21:29:37;;;;;;;32.50;15.00;;;;;;;12.34;47.85;97847.79;266760;1268;22524;-79
2023/03/06 21:35:44;;;;;;;28.50;14.40;;;;;;;12.48;47.58;97842.35;266967;1273;23239;-79
2023/03/06 21:41:47;;;;;;;31.70;15.70;;;;;;;12.16;48.02;97845.74;266690;1272;22966;-78
2023/03/06 21:47:50;;;;;;;30.00;14.80;;;;;;;12.09;48.27;97845.41;266962;1273;25287;-79
2023/03/06 21:53:54;;;;;;;30.50;15.40;;;;;;;12.03;48.18;97846.21;266930;1270;22632;-77
2023/03/06 21:59:57;;;;;;;32.60;16.10;;;;;;;12.17;47.82;97847.46;267119;1267;24502;-76
2023/03/06 22:06:08;;;;;;;30.30;14.70;;;;;;;12.03;47.93;97844.23;267342;1271;22527;-74
2023/03/06 22:12:11;;;;;;;29.00;15.70;;;;;;;11.96;48.21;97836.89;267152;1267;24260;-73
2023/03/06 22:18:14;;;;;;;33.80;16.70;;;;;;;11.60;48.62;97836.33;267104;1274;22678;-73
2023/03/06 22:24:18;;;;;;;33.60;16.30;;;;;;;11.46;48.55;97829.69;266835;1274;22556;-73
2023/03/06 22:30:21;;;;;;;33.70;16.70;;;;;;;11.37;48.67;97826.86;266881;1274;25570;-74
2023/03/06 22:36:24;;;;;;;34.90;17.20;;;;;;;11.30;48.40;97822.92;266704;1272;25668;-74
2023/03/06 22:42:27;;;;;;;31.20;16.00;;;;;;;11.12;48.54;97820.90;266775;1275;22884;-73
2023/03/06 22:48:32;;;;;;;31.80;15.80;;;;;;;10.93;48.67;97824.64;266639;1275;24223;-73
2023/03/06 22:54:35;;;;;;;34.50;16.10;;;;;;;10.83;48.67;97826.38;267005;1273;22566;-74
2023/03/06 23:00:38;;;;;;;31.50;16.20;;;;;;;10.78;48.65;97829.70;267170;1274;22521;-75
2023/03/06 23:06:42;;;;;;;30.90;15.70;;;;;;;10.97;48.35;97834.13;266802;1274;24200;-75
2023/03/06 23:12:45;;;;;;;37.10;18.60;;;;;;;11.01;48.69;97836.67;266926;1274;22532;-74
2023/03/06 23:19:07;;;;;;;39.70;18.60;;;;;;;11.19;48.93;97836.73;266950;1274;23259;-73
2023/03/06 23:25:28;;;;;;;39.50;19.10;;;;;;;11.40;48.43;97835.60;266884;1274;22533;-74
2023/03/06 23:31:31;;;;;;;35.10;17.40;;;;;;;11.23;48.40;97830.13;266904;1274;24351;-73
2023/03/06 23:37:37;;;;;;;32.00;16.50;;;;;;;11.19;48.37;97837.54;266361;1276;24033;-74
2023/03/06 23:43:40;;;;;;;34.10;17.60;;;;;;;11.05;48.15;97833.88;266428;1275;22534;-74
2023/03/06 23:49:43;;;;;;;32.80;16.30;;;;;;;10.88;48.37;97837.05;266404;1276;25232;-75
2023/03/06 23:55:48;;;;;;;31.20;15.90;;;;;;;10.82;48.38;97837.94;266839;1275;22528;-74
